createdAt,value
2018-07-27T00:00:29.548Z,58.40
2018-07-27T00:02:58.620Z,59.30
2018-07-27T00:05:27.515Z,59.80
2018-07-27T00:07:56.549Z,59.80
2018-07-27T00:10:25.500Z,59.70
2018-07-27T00:12:54.367Z,59.40
2018-07-27T00:15:23.276Z,59.40
2018-07-27T00:17:52.164Z,59.00
2018-07-27T00:20:21.096Z,59.40
2018-07-27T00:22:49.971Z,59.10
2018-07-27T00:25:18.873Z,59.10
2018-07-27T00:27:47.769Z,59.10
2018-07-27T00:30:16.649Z,59.20
2018-07-27T00:32:45.568Z,59.70
2018-07-27T00:35:14.517Z,59.60
2018-07-27T00:37:43.523Z,60.60
2018-07-27T00:40:12.529Z,61.10
2018-07-27T00:42:41.473Z,62.80
2018-07-27T00:45:10.420Z,63.90
2018-07-27T00:47:39.480Z,63.80
2018-07-27T00:50:08.693Z,63.20
2018-07-27T00:52:37.844Z,63.70
2018-07-27T00:55:06.868Z,64.00
2018-07-27T00:57:35.924Z,65.20
2018-07-27T01:00:05.473Z,65.90
2018-07-27T01:02:34.552Z,66.00
2018-07-27T01:05:03.701Z,66.50
2018-07-27T01:07:32.685Z,66.50
2018-07-27T01:10:01.645Z,66.60
2018-07-27T01:12:30.592Z,66.90
2018-07-27T01:14:59.532Z,66.80
2018-07-27T01:17:28.448Z,67.20
2018-07-27T01:19:57.389Z,67.10
2018-07-27T01:22:26.324Z,67.60
2018-07-27T01:24:55.360Z,68.30
2018-07-27T01:27:24.344Z,68.90
2018-07-27T01:29:53.268Z,69.40
2018-07-27T01:32:22.168Z,69.70
2018-07-27T01:34:51.118Z,70.20
2018-07-27T01:37:20.029Z,70.80
2018-07-27T01:39:48.991Z,70.60
2018-07-27T01:42:17.895Z,70.50
2018-07-27T01:44:46.861Z,70.70
2018-07-27T01:47:15.808Z,70.80
2018-07-27T01:49:44.753Z,71.70
2018-07-27T01:52:13.724Z,70.80
2018-07-27T01:54:42.685Z,70.80
2018-07-27T01:57:11.774Z,71.50
2018-07-27T01:59:40.831Z,73.30
2018-07-27T02:02:09.944Z,72.90
2018-07-27T02:04:38.996Z,72.90
2018-07-27T02:07:08.127Z,74.50
2018-07-27T02:09:37.174Z,75.00
2018-07-27T02:12:06.469Z,74.70
2018-07-27T02:14:35.481Z,73.70
2018-07-27T02:17:04.623Z,74.10
2018-07-27T02:19:33.635Z,72.80
2018-07-27T02:22:02.564Z,73.20
2018-07-27T02:24:32.413Z,74.50
2018-07-27T02:27:01.324Z,74.20
2018-07-27T02:29:30.221Z,74.40
2018-07-27T02:31:59.170Z,74.90
2018-07-27T02:34:28.044Z,73.70
2018-07-27T02:36:56.948Z,73.40
2018-07-27T02:39:25.845Z,73.70
2018-07-27T02:41:54.773Z,73.30
2018-07-27T02:44:23.639Z,73.00
2018-07-27T02:46:52.568Z,72.30
2018-07-27T02:49:21.517Z,72.60
2018-07-27T02:51:50.450Z,73.00
2018-07-27T02:54:19.336Z,73.40
2018-07-27T02:56:48.237Z,72.60
2018-07-27T02:59:17.128Z,72.10
2018-07-27T03:01:46.061Z,68.40
2018-07-27T03:04:14.973Z,72.20
2018-07-27T03:06:43.893Z,72.50
2018-07-27T03:09:13.107Z,72.00
2018-07-27T03:11:42.164Z,72.50
2018-07-27T03:14:11.193Z,72.70
2018-07-27T03:16:40.129Z,72.10
2018-07-27T03:19:09.293Z,72.80
2018-07-27T03:21:38.260Z,73.50
2018-07-27T03:24:07.306Z,73.80
2018-07-27T03:26:36.342Z,73.10
2018-07-27T03:29:05.390Z,73.30
2018-07-27T03:31:34.372Z,73.00
2018-07-27T03:34:03.398Z,73.80
2018-07-27T03:36:32.341Z,73.30
2018-07-27T03:39:01.287Z,73.40
2018-07-27T03:41:30.220Z,73.70
2018-07-27T03:43:59.180Z,74.50
2018-07-27T03:46:28.162Z,74.10
2018-07-27T03:48:57.156Z,73.90
2018-07-27T03:51:26.129Z,74.20
2018-07-27T03:53:55.042Z,74.30
2018-07-27T03:56:23.957Z,73.10
2018-07-27T03:58:52.864Z,73.10
2018-07-27T04:01:21.745Z,74.10
2018-07-27T04:03:50.664Z,74.10
2018-07-27T04:06:19.544Z,74.30
2018-07-27T04:08:48.457Z,74.90
2018-07-27T04:11:17.367Z,75.20
2018-07-27T04:13:46.229Z,74.60
2018-07-27T04:16:15.152Z,74.90
2018-07-27T04:18:44.020Z,74.80
2018-07-27T04:21:12.972Z,75.30
2018-07-27T04:23:41.885Z,76.60
2018-07-27T04:26:10.854Z,75.80
2018-07-27T04:28:39.844Z,76.00
2018-07-27T04:31:08.809Z,76.80
2018-07-27T04:33:37.845Z,77.00
2018-07-27T04:36:06.969Z,76.30
2018-07-27T04:38:36.022Z,77.00
2018-07-27T04:41:05.052Z,77.00
2018-07-27T04:43:34.066Z,76.60
2018-07-27T04:46:02.979Z,77.00
2018-07-27T04:48:31.858Z,77.40
2018-07-27T04:51:00.868Z,77.80
2018-07-27T04:53:29.792Z,77.80
2018-07-27T04:55:58.728Z,74.60
2018-07-27T04:58:27.635Z,74.30
2018-07-27T05:00:56.508Z,72.20
2018-07-27T05:03:25.433Z,69.10
2018-07-27T05:05:54.324Z,66.50
2018-07-27T05:08:23.257Z,66.50
2018-07-27T05:10:52.224Z,67.30
2018-07-27T05:13:21.140Z,68.20
2018-07-27T05:15:50.400Z,68.70
2018-07-27T05:18:19.428Z,68.20
2018-07-27T05:20:48.408Z,68.20
2018-07-27T05:23:17.360Z,66.30
2018-07-27T05:25:46.241Z,62.60
2018-07-27T05:28:15.191Z,62.20
2018-07-27T05:30:44.117Z,60.60
2018-07-27T05:33:13.040Z,59.30
2018-07-27T05:35:41.928Z,58.50
2018-07-27T05:38:10.849Z,57.80
2018-07-27T05:40:39.784Z,57.60
2018-07-27T05:43:08.712Z,58.50
2018-07-27T05:45:37.582Z,56.40
2018-07-27T05:48:06.576Z,54.70
2018-07-27T05:50:35.515Z,56.60
2018-07-27T05:53:04.586Z,57.00
2018-07-27T05:55:33.501Z,58.10
2018-07-27T05:58:02.448Z,58.10
2018-07-27T06:00:31.361Z,55.30
2018-07-27T06:03:00.380Z,57.80
2018-07-27T06:05:29.289Z,58.60
2018-07-27T06:07:58.285Z,57.70
2018-07-27T06:10:27.203Z,56.80
2018-07-27T06:12:56.118Z,56.30
2018-07-27T06:15:25.046Z,54.20
2018-07-27T06:17:54.048Z,53.90
2018-07-27T06:20:22.992Z,52.30
2018-07-27T06:22:51.900Z,53.10
2018-07-27T06:25:20.791Z,51.20
2018-07-27T06:27:49.696Z,52.10
2018-07-27T06:30:18.603Z,50.30
2018-07-27T06:32:47.549Z,51.20
2018-07-27T06:35:16.460Z,51.90
2018-07-27T06:37:45.416Z,52.10
2018-07-27T06:40:14.300Z,51.20
2018-07-27T06:42:43.252Z,50.30
2018-07-27T06:45:12.221Z,50.90
2018-07-27T06:47:41.083Z,50.00
2018-07-27T06:50:10.008Z,49.30
2018-07-27T06:52:39.204Z,48.50
2018-07-27T06:55:08.132Z,46.90
2018-07-27T06:57:37.041Z,48.50
2018-07-27T07:00:06.660Z,47.90
2018-07-27T07:02:35.519Z,45.70
2018-07-27T07:05:04.604Z,47.90
2018-07-27T07:07:33.463Z,48.30
2018-07-27T07:10:02.421Z,47.70
2018-07-27T07:12:31.331Z,46.80
2018-07-27T07:15:00.268Z,47.60
2018-07-27T07:17:29.238Z,45.10
2018-07-27T07:19:58.222Z,45.70
2018-07-27T07:22:27.105Z,45.50
2018-07-27T07:24:56.366Z,46.60
2018-07-27T07:27:25.336Z,47.00
2018-07-27T07:29:54.272Z,47.40
2018-07-27T07:32:23.183Z,43.70
2018-07-27T07:34:52.112Z,43.30
2018-07-27T07:37:21.179Z,46.10
2018-07-27T07:39:50.183Z,43.50
2018-07-27T07:42:19.056Z,44.00
2018-07-27T07:44:48.009Z,43.80
2018-07-27T07:47:16.949Z,42.10
2018-07-27T07:49:45.884Z,42.80
2018-07-27T07:52:14.788Z,42.30
2018-07-27T07:54:43.712Z,42.40
2018-07-27T07:57:12.608Z,41.50
2018-07-27T07:59:41.552Z,39.90
2018-07-27T08:02:10.436Z,40.20
2018-07-27T08:04:39.372Z,39.80
2018-07-27T08:07:08.320Z,41.30
2018-07-27T08:09:37.279Z,40.90
2018-07-27T08:12:06.290Z,43.70
2018-07-27T08:14:35.211Z,39.30
2018-07-27T08:17:04.420Z,38.70
2018-07-27T08:19:33.348Z,39.50
2018-07-27T08:22:02.321Z,39.90
2018-07-27T08:24:31.340Z,40.00
2018-07-27T08:27:02.037Z,38.10
2018-07-27T08:29:32.255Z,37.90
2018-07-27T08:32:01.482Z,38.00
2018-07-27T08:34:30.424Z,38.30
2018-07-27T08:36:59.333Z,37.00
2018-07-27T08:39:30.339Z,37.70
2018-07-27T08:41:59.316Z,38.50
2018-07-27T08:44:29.496Z,37.50
2018-07-27T08:46:58.461Z,38.00
2018-07-27T08:49:27.402Z,37.70
2018-07-27T08:51:56.285Z,37.80
2018-07-27T08:54:25.224Z,36.70
2018-07-27T08:56:54.124Z,37.90
2018-07-27T08:59:23.059Z,36.00
2018-07-27T09:01:51.933Z,34.50
2018-07-27T09:04:20.845Z,36.10
2018-07-27T09:06:49.732Z,36.80
2018-07-27T09:09:19.337Z,36.30
2018-07-27T09:11:48.239Z,36.50
2018-07-27T09:14:17.185Z,36.30
2018-07-27T09:16:46.043Z,34.40
2018-07-27T09:19:14.980Z,35.80
2018-07-27T09:21:44.088Z,36.50
2018-07-27T09:24:13.137Z,35.10
2018-07-27T09:26:41.990Z,36.20
2018-07-27T09:29:10.853Z,37.80
2018-07-27T09:31:39.749Z,35.50
2018-07-27T09:34:08.672Z,36.10
2018-07-27T09:36:37.589Z,35.40
2018-07-27T09:39:08.793Z,37.00
2018-07-27T09:41:37.820Z,35.70
2018-07-27T09:44:06.896Z,36.30
2018-07-27T09:46:36.030Z,36.70
2018-07-27T09:49:05.024Z,36.60
2018-07-27T09:51:33.982Z,37.40
2018-07-27T09:54:02.860Z,36.00
2018-07-27T09:56:31.756Z,35.30
2018-07-27T09:59:00.632Z,35.80
2018-07-27T10:01:30.074Z,35.70
2018-07-27T10:03:58.944Z,34.40
2018-07-27T10:06:27.895Z,33.90
2018-07-27T10:08:56.761Z,34.20
2018-07-27T10:11:25.685Z,33.90
2018-07-27T10:13:54.556Z,33.30
2018-07-27T10:16:23.468Z,32.40
2018-07-27T10:18:52.317Z,32.40
2018-07-27T10:21:21.231Z,33.80
2018-07-27T10:23:50.085Z,32.40
2018-07-27T10:26:19.029Z,31.90
2018-07-27T10:28:47.895Z,33.20
2018-07-27T10:31:16.803Z,33.40
2018-07-27T10:33:45.733Z,33.80
2018-07-27T10:36:14.676Z,33.30
2018-07-27T10:38:43.624Z,32.80
2018-07-27T10:41:12.508Z,33.20
2018-07-27T10:43:41.380Z,33.50
2018-07-27T10:46:10.288Z,34.10
2018-07-27T10:48:39.152Z,35.20
2018-07-27T10:51:08.105Z,33.00
2018-07-27T10:53:36.988Z,35.10
2018-07-27T10:56:06.115Z,34.30
2018-07-27T10:58:34.983Z,34.30
2018-07-27T11:01:03.913Z,34.50
2018-07-27T11:03:32.785Z,35.00
2018-07-27T11:06:01.669Z,34.60
2018-07-27T11:08:30.540Z,34.50
2018-07-27T11:10:59.527Z,33.60
2018-07-27T11:13:28.432Z,34.00
2018-07-27T11:15:57.360Z,34.70
2018-07-27T11:18:26.286Z,34.90
2018-07-27T11:20:55.276Z,34.80
2018-07-27T11:23:24.168Z,34.50
2018-07-27T11:25:53.127Z,35.20
2018-07-27T11:28:22.063Z,35.00
2018-07-27T11:30:50.981Z,35.70
2018-07-27T11:33:19.855Z,36.70
2018-07-27T11:35:48.809Z,36.20
2018-07-27T11:38:17.770Z,36.10
2018-07-27T11:40:46.717Z,37.10
2018-07-27T11:43:15.608Z,36.70
2018-07-27T11:45:44.548Z,36.70
2018-07-27T11:48:13.452Z,36.70
2018-07-27T11:50:42.384Z,37.10
2018-07-27T11:53:11.307Z,37.20
2018-07-27T11:55:40.239Z,36.50
2018-07-27T11:58:09.131Z,40.30
2018-07-27T12:00:38.088Z,36.50
2018-07-27T12:03:06.983Z,36.60
2018-07-27T12:05:35.866Z,36.20
2018-07-27T12:08:04.812Z,37.00
2018-07-27T12:10:33.714Z,36.40
2018-07-27T12:13:02.645Z,35.30
2018-07-27T12:15:31.584Z,36.00
2018-07-27T12:18:00.491Z,36.20
2018-07-27T12:20:29.458Z,35.70
2018-07-27T12:22:58.368Z,34.80
2018-07-27T12:25:27.238Z,35.60
2018-07-27T12:27:56.149Z,36.10
2018-07-27T12:30:25.060Z,35.60
2018-07-27T12:32:53.968Z,35.10
2018-07-27T12:35:22.823Z,36.10
2018-07-27T12:37:51.719Z,35.60
2018-07-27T12:40:20.596Z,36.20
2018-07-27T12:42:49.509Z,35.40
2018-07-27T12:45:18.344Z,36.30
2018-07-27T12:47:47.296Z,36.20
2018-07-27T12:50:16.218Z,34.80
2018-07-27T12:52:45.170Z,35.50
2018-07-27T12:55:14.076Z,35.20
2018-07-27T12:57:42.972Z,35.60
2018-07-27T13:00:11.861Z,35.20
2018-07-27T13:02:40.787Z,37.40
2018-07-27T13:05:09.698Z,36.40
2018-07-27T13:07:38.648Z,36.60
2018-07-27T13:10:08.009Z,35.40
2018-07-27T13:12:38.039Z,35.40
2018-07-27T13:15:07.989Z,36.00
2018-07-27T13:17:36.996Z,35.50
2018-07-27T13:20:06.556Z,36.30
2018-07-27T13:22:35.570Z,35.70
2018-07-27T13:25:04.603Z,35.40
2018-07-27T13:27:33.507Z,35.40
2018-07-27T13:30:02.421Z,35.40
2018-07-27T13:32:31.357Z,35.20
2018-07-27T13:35:00.916Z,37.70
2018-07-27T13:40:00.985Z,35.80
2018-07-27T13:42:31.168Z,35.50
2018-07-27T13:45:00.196Z,34.60
2018-07-27T13:47:29.188Z,36.80
2018-07-27T13:49:58.168Z,35.40
2018-07-27T13:52:27.222Z,35.40
2018-07-27T13:54:56.626Z,34.60
2018-07-27T13:57:25.700Z,35.60
2018-07-27T13:59:54.760Z,35.60
2018-07-27T14:02:23.732Z,35.00
2018-07-27T14:04:52.672Z,34.80
2018-07-27T14:07:21.708Z,35.00
2018-07-27T14:09:50.855Z,34.20
2018-07-27T14:12:19.891Z,36.40
2018-07-27T14:14:49.032Z,34.40
2018-07-27T14:17:18.122Z,37.70
2018-07-27T14:19:47.100Z,34.80
2018-07-27T14:22:16.077Z,33.80
2018-07-27T14:24:45.004Z,34.00
2018-07-27T14:27:20.276Z,35.10
2018-07-27T14:29:49.172Z,33.70
2018-07-27T14:32:18.101Z,33.50
2018-07-27T14:34:47.062Z,35.20
2018-07-27T14:37:15.974Z,34.60
2018-07-27T14:39:44.940Z,34.10
2018-07-27T14:42:13.830Z,33.70
2018-07-27T14:44:42.818Z,33.90
2018-07-27T14:47:11.782Z,33.90
2018-07-27T14:49:40.728Z,34.40
2018-07-27T14:52:09.654Z,34.00
2018-07-27T14:54:38.569Z,33.20
2018-07-27T14:57:07.514Z,33.30
2018-07-27T14:59:36.438Z,33.60
2018-07-27T15:02:05.409Z,33.50
2018-07-27T15:04:34.328Z,33.80
2018-07-27T15:07:03.293Z,34.20
2018-07-27T15:09:32.297Z,34.80
2018-07-27T15:12:01.223Z,35.70
2018-07-27T15:14:30.164Z,35.20
2018-07-27T15:16:59.049Z,36.40
2018-07-27T15:19:27.968Z,33.70
2018-07-27T15:21:57.477Z,33.30
2018-07-27T15:24:26.488Z,34.00
2018-07-27T15:26:55.420Z,34.00
2018-07-27T15:29:24.380Z,34.10
2018-07-27T15:31:53.270Z,33.80
2018-07-27T15:34:22.193Z,33.30
2018-07-27T15:36:51.436Z,34.30
2018-07-27T15:39:20.373Z,34.10
2018-07-27T15:41:49.288Z,33.60
2018-07-27T15:44:18.316Z,33.60
2018-07-27T15:46:47.221Z,34.00
2018-07-27T15:49:16.152Z,35.20
2018-07-27T15:51:45.537Z,33.50
2018-07-27T15:54:14.476Z,34.10
2018-07-27T15:56:43.556Z,33.20
2018-07-27T15:59:12.479Z,33.70
2018-07-27T16:01:41.384Z,33.40
2018-07-27T16:04:10.299Z,33.60
2018-07-27T16:06:39.177Z,34.00
2018-07-27T16:09:09.121Z,34.60
2018-07-27T16:11:38.040Z,33.80
2018-07-27T16:14:06.968Z,34.40
2018-07-27T16:16:35.886Z,34.20
2018-07-27T16:19:04.903Z,33.90
2018-07-27T16:21:33.769Z,33.60
2018-07-27T16:24:02.746Z,34.70
2018-07-27T16:26:31.673Z,34.70
2018-07-27T16:29:00.663Z,35.10
2018-07-27T16:31:29.565Z,35.60
2018-07-27T16:33:58.568Z,34.70
2018-07-27T16:36:27.484Z,34.60
2018-07-27T16:38:56.490Z,34.80
2018-07-27T16:41:25.448Z,34.30
2018-07-27T16:43:54.404Z,35.30
2018-07-27T16:46:23.326Z,35.10
2018-07-27T16:48:52.325Z,34.90
2018-07-27T16:51:21.228Z,35.70
2018-07-27T16:53:50.180Z,34.40
2018-07-27T16:56:19.080Z,34.70
2018-07-27T16:58:47.963Z,34.90
2018-07-27T17:01:16.901Z,35.00
2018-07-27T17:03:45.820Z,35.10
2018-07-27T17:06:14.756Z,34.80
2018-07-27T17:08:43.722Z,34.80
2018-07-27T17:11:12.667Z,35.10
2018-07-27T17:13:41.544Z,34.70
2018-07-27T17:16:10.492Z,35.10
2018-07-27T17:18:39.380Z,35.20
2018-07-27T17:21:08.312Z,35.20
2018-07-27T17:23:37.220Z,34.40
2018-07-27T17:26:06.173Z,35.00
2018-07-27T17:28:35.112Z,35.20
2018-07-27T17:31:04.178Z,35.40
2018-07-27T17:33:33.105Z,34.80
2018-07-27T17:36:02.029Z,36.30
2018-07-27T17:38:30.903Z,35.90
2018-07-27T17:40:59.885Z,35.70
2018-07-27T17:43:28.876Z,34.70
2018-07-27T17:45:57.872Z,35.50
2018-07-27T17:48:26.784Z,35.80
2018-07-27T17:50:55.733Z,35.50
2018-07-27T17:53:24.608Z,35.80
2018-07-27T17:55:53.527Z,36.60
2018-07-27T17:58:22.397Z,37.30
2018-07-27T18:00:51.396Z,36.70
2018-07-27T18:03:20.273Z,36.70
2018-07-27T18:05:49.203Z,37.30
2018-07-27T18:08:18.112Z,37.60
2018-07-27T18:10:47.112Z,37.70
2018-07-27T18:13:16.021Z,37.70
2018-07-27T18:15:44.964Z,38.00
2018-07-27T18:18:13.948Z,37.50
2018-07-27T18:20:42.907Z,38.10
2018-07-27T18:23:11.793Z,38.10
2018-07-27T18:25:40.739Z,38.80
2018-07-27T18:28:09.621Z,38.80
2018-07-27T18:30:38.612Z,38.70
2018-07-27T18:33:07.985Z,39.00
2018-07-27T18:35:36.920Z,39.30
2018-07-27T18:38:05.872Z,39.80
2018-07-27T18:40:34.832Z,40.00
2018-07-27T18:43:03.716Z,40.40
2018-07-27T18:45:32.626Z,40.90
2018-07-27T18:48:01.541Z,41.10
2018-07-27T18:50:30.490Z,41.00
2018-07-27T18:52:59.388Z,41.10
2018-07-27T18:55:29.443Z,41.70
2018-07-27T18:57:58.380Z,41.00
2018-07-27T19:00:27.358Z,41.00
2018-07-27T19:02:56.283Z,42.50
2018-07-27T19:05:25.184Z,42.30
2018-07-27T19:07:54.052Z,43.50
2018-07-27T19:10:23.048Z,43.40
2018-07-27T19:12:51.929Z,45.10
2018-07-27T19:21:20.245Z,51.20
2018-07-27T19:23:49.128Z,49.40
2018-07-27T19:26:18.084Z,46.00
2018-07-27T19:28:47.026Z,47.30
2018-07-27T19:31:16.088Z,49.80
2018-07-27T19:33:45.049Z,50.60
2018-07-27T19:36:14.042Z,46.30
2018-07-27T19:38:43.037Z,48.00
2018-07-27T19:41:12.069Z,49.70
2018-07-27T19:43:41.157Z,52.00
2018-07-27T19:46:10.362Z,50.30
2018-07-27T19:48:39.700Z,47.70
2018-07-27T19:51:08.673Z,52.30
2018-07-27T19:53:37.647Z,51.10
2018-07-27T19:56:07.008Z,47.00
2018-07-27T19:58:35.924Z,48.40
2018-07-27T20:01:04.916Z,51.90
2018-07-27T20:03:34.072Z,50.00
2018-07-27T20:06:02.980Z,47.80
2018-07-27T20:08:31.895Z,50.70
2018-07-27T20:11:00.845Z,50.20
2018-07-27T20:13:29.741Z,49.50
2018-07-27T20:15:58.667Z,48.80
2018-07-27T20:18:27.564Z,50.40
2018-07-27T20:20:56.557Z,49.90
2018-07-27T20:23:25.555Z,51.10
2018-07-27T20:25:54.505Z,48.50
2018-07-27T20:28:23.761Z,49.20
2018-07-27T20:30:53.066Z,48.80
2018-07-27T20:33:22.108Z,49.20
2018-07-27T20:35:51.056Z,48.90
2018-07-27T20:38:19.925Z,50.90
2018-07-27T20:40:48.823Z,52.00
2018-07-27T20:43:17.793Z,51.20
2018-07-27T20:45:46.729Z,50.20
2018-07-27T20:48:15.829Z,49.30
2018-07-27T20:50:44.814Z,50.20
2018-07-27T20:53:13.897Z,50.20
2018-07-27T20:55:42.988Z,49.80
2018-07-27T20:58:13.126Z,49.70
2018-07-27T21:00:42.145Z,49.70
2018-07-27T21:03:11.137Z,51.40
2018-07-27T21:05:40.121Z,51.30
2018-07-27T21:08:09.090Z,51.10
2018-07-27T21:10:38.053Z,50.70
2018-07-27T21:13:07.012Z,50.50
2018-07-27T21:15:35.899Z,49.30
2018-07-27T21:18:04.849Z,51.20
2018-07-27T21:20:33.784Z,51.60
2018-07-27T21:23:02.756Z,51.90
2018-07-27T21:25:31.657Z,50.10
2018-07-27T21:28:00.576Z,50.80
2018-07-27T21:30:29.464Z,52.30
2018-07-27T21:32:58.425Z,51.70
2018-07-27T21:35:27.305Z,52.30
2018-07-27T21:37:56.248Z,50.70
2018-07-27T21:40:25.125Z,52.40
2018-07-27T21:42:54.049Z,51.60
2018-07-27T21:45:23.028Z,51.60
2018-07-27T21:47:51.960Z,51.10
2018-07-27T21:50:20.872Z,52.40
2018-07-27T21:52:49.860Z,52.80
2018-07-27T21:55:18.939Z,52.10
2018-07-27T21:57:48.031Z,53.20
2018-07-27T22:00:17.061Z,53.00
2018-07-27T22:02:46.148Z,53.10
2018-07-27T22:05:15.170Z,53.40
2018-07-27T22:07:44.381Z,53.80
2018-07-27T22:10:13.593Z,52.80
2018-07-27T22:12:42.806Z,53.10
2018-07-27T22:15:15.995Z,53.00
2018-07-27T22:17:45.064Z,51.50
2018-07-27T22:20:14.140Z,51.70
2018-07-27T22:22:43.316Z,52.00
2018-07-27T22:25:12.366Z,51.00
2018-07-27T22:27:41.508Z,50.60
2018-07-27T22:30:11.690Z,53.50
2018-07-27T22:32:40.758Z,53.00
2018-07-27T22:35:09.761Z,53.10
2018-07-27T22:37:40.015Z,52.70
2018-07-27T22:40:10.501Z,51.30
2018-07-27T22:42:39.829Z,53.30
2018-07-27T22:45:09.743Z,51.30
2018-07-27T22:47:38.730Z,51.80
2018-07-27T22:50:08.040Z,53.90
2018-07-27T22:52:40.016Z,52.50
2018-07-27T22:55:12.230Z,51.50
2018-07-27T22:57:42.571Z,53.20
2018-07-27T23:00:14.530Z,52.20
2018-07-27T23:02:43.929Z,52.00
2018-07-27T23:05:13.542Z,53.80
2018-07-27T23:07:42.800Z,52.60
2018-07-27T23:10:12.017Z,53.60
2018-07-27T23:12:41.292Z,52.70
2018-07-27T23:15:12.013Z,53.60
2018-07-27T23:17:41.210Z,54.50
2018-07-27T23:20:15.354Z,54.90
2018-07-27T23:22:44.741Z,53.90
2018-07-27T23:25:13.798Z,54.40
2018-07-27T23:27:43.002Z,54.20
2018-07-27T23:30:13.420Z,53.30
2018-07-27T23:32:42.749Z,54.30
2018-07-27T23:35:11.982Z,54.60
2018-07-27T23:37:41.308Z,56.00
2018-07-27T23:40:10.584Z,54.80
2018-07-27T23:42:39.856Z,55.30
2018-07-27T23:45:09.552Z,55.00
2018-07-27T23:47:38.652Z,55.90
2018-07-27T23:50:08.022Z,56.60
2018-07-27T23:52:36.936Z,55.80
2018-07-27T23:55:05.979Z,57.00
2018-07-27T23:57:34.904Z,56.60
